Time;durP1;ratioP1;P1;durP2;ratioP2;P2;SDS_P1;SDS_P2;PMS_P1;PMS_P2;Temp;Humidity;BMP_temperature;BMP_pressure;BME280_temperature;BME280_humidity;BME280_pressure;Samples;Min_cycle;Max_cycle;Signal;HPM_P1;HPM_P2
2021/10/08 00:01:34;;;;;;;23.93;10.63;;;;;;;4.54;64.97;101982.86;1742315;82;25692;-54
2021/10/08 00:04:02;;;;;;;19.57;9.63;;;;;;;4.46;65.00;101983.97;1742032;82;28397;-54
2021/10/08 00:06:29;;;;;;;21.77;9.70;;;;;;;4.40;64.88;101981.69;1741911;82;25745;-55
2021/10/08 00:08:57;;;;;;;20.00;10.40;;;;;;;4.34;64.80;101979.89;1741979;82;25524;-55
2021/10/08 00:11:25;;;;;;;32.13;11.08;;;;;;;4.26;64.82;101985.59;1741952;82;26340;-53
2021/10/08 00:13:53;;;;;;;17.35;9.60;;;;;;;4.18;64.82;101995.27;1742034;82;25544;-54
2021/10/08 00:16:20;;;;;;;23.00;9.00;;;;;;;4.09;64.84;101994.75;1742026;81;27337;-54
2021/10/08 00:18:48;;;;;;;24.87;9.20;;;;;;;4.00;65.13;101990.72;1741882;82;25454;-54
2021/10/08 00:21:16;;;;;;;14.87;8.85;;;;;;;3.96;65.09;101990.88;1742020;82;25522;-54
2021/10/08 00:23:43;;;;;;;20.48;8.45;;;;;;;3.96;65.55;101987.67;1741970;82;25696;-55
2021/10/08 00:26:10;;;;;;;19.32;9.28;;;;;;;3.96;65.61;101990.88;1742113;81;25656;-54
2021/10/08 00:28:36;;;;;;;20.62;8.08;;;;;;;3.97;65.69;101991.16;1742008;82;27335;-54
2021/10/08 00:31:04;;;;;;;24.37;8.63;;;;;;;3.93;65.66;101989.45;1741914;82;25667;-54
2021/10/08 00:33:30;;;;;;;19.15;8.18;;;;;;;3.92;65.71;101992.66;1748062;81;25630;-53
2021/10/08 00:35:57;;;;;;;17.27;8.43;;;;;;;3.93;65.88;101990.78;1752056;81;25617;-54
2021/10/08 00:38:24;;;;;;;15.75;7.62;;;;;;;3.96;65.91;101991.69;1752080;81;25633;-53
2021/10/08 00:40:53;;;;;;;15.40;7.75;;;;;;;3.98;66.03;101986.11;1752034;81;28382;-54
2021/10/08 00:43:21;;;;;;;16.70;8.18;;;;;;;4.04;66.09;101997.28;1751963;81;25510;-55
2021/10/08 00:45:49;;;;;;;14.30;7.33;;;;;;;4.08;66.10;101998.45;1752020;81;25688;-55
2021/10/08 00:48:18;;;;;;;13.08;7.08;;;;;;;4.14;66.14;102000.75;1752056;81;25619;-54
2021/10/08 00:50:50;;;;;;;12.50;6.97;;;;;;;4.15;65.92;102001.06;1752115;81;25241;-55
2021/10/08 00:53:20;;;;;;;18.70;8.08;;;;;;;4.22;66.13;102001.80;1752019;81;27324;-55
2021/10/08 00:55:51;;;;;;;15.53;7.60;;;;;;;4.27;65.99;102004.12;1726334;83;31231;-54
2021/10/08 00:58:21;;;;;;;23.60;9.33;;;;;;;4.28;65.79;102003.05;1726306;83;25535;-54
2021/10/08 01:00:52;;;;;;;21.25;8.35;;;;;;;4.28;65.73;102002.25;1726199;83;25590;-55
2021/10/08 01:03:21;;;;;;;17.77;9.05;;;;;;;4.28;65.70;102004.39;1752115;81;25547;-55
2021/10/08 01:05:48;;;;;;;16.90;9.63;;;;;;;4.29;65.77;102010.56;1752203;81;27320;-55
2021/10/08 01:08:15;;;;;;;14.98;7.85;;;;;;;4.27;65.90;102004.12;1751988;81;25686;-55
2021/10/08 01:10:44;;;;;;;20.90;8.63;;;;;;;4.26;65.85;102006.48;1752046;81;25714;-55
2021/10/08 01:13:12;;;;;;;16.25;8.48;;;;;;;4.22;65.69;102012.52;1752046;81;26230;-55
2021/10/08 01:15:41;;;;;;;14.90;8.13;;;;;;;4.19;65.79;102004.91;1752082;81;25184;-55
2021/10/08 01:18:09;;;;;;;23.10;8.48;;;;;;;4.14;65.81;102010.13;1752054;81;27332;-54
2021/10/08 01:20:37;;;;;;;15.55;6.72;;;;;;;4.12;65.76;102014.39;1751973;81;25679;-54
2021/10/08 01:23:04;;;;;;;19.20;7.00;;;;;;;4.04;65.66;102012.81;1752077;81;25550;-55
2021/10/08 01:25:35;;;;;;;20.17;7.97;;;;;;;4.04;65.86;102012.81;1752026;81;26673;-55
2021/10/08 01:28:04;;;;;;;16.55;8.65;;;;;;;4.06;65.74;102022.78;1752133;81;25707;-55
2021/10/08 01:30:32;;;;;;;13.18;7.03;;;;;;;4.03;65.80;102022.41;1752195;81;27304;-54
2021/10/08 01:33:00;;;;;;;15.32;6.95;;;;;;;4.01;65.84;102020.48;1749281;81;25486;-55
2021/10/08 01:35:27;;;;;;;17.30;8.43;;;;;;;4.02;65.95;102025.62;1741983;82;25470;-55
2021/10/08 01:37:54;;;;;;;14.03;7.50;;;;;;;4.04;65.80;102025.39;1741923;81;25699;-54
2021/10/08 01:40:21;;;;;;;14.55;7.17;;;;;;;4.01;65.51;102019.95;1741928;82;25667;-54
2021/10/08 01:42:48;;;;;;;13.30;6.72;;;;;;;3.93;65.18;102019.73;1741925;81;27363;-54
2021/10/08 01:45:16;;;;;;;13.45;7.28;;;;;;;3.89;65.54;102014.52;1711293;82;25653;-54
2021/10/08 01:47:42;;;;;;;15.58;7.28;;;;;;;3.87;65.51;102019.27;1741958;81;25467;-54
2021/10/08 01:50:11;;;;;;;18.15;7.75;;;;;;;3.85;65.18;102024.56;1741909;82;25616;-54
2021/10/08 01:52:38;;;;;;;23.22;8.58;;;;;;;3.82;65.53;102025.00;1741967;82;25464;-55
2021/10/08 01:55:07;;;;;;;15.13;8.58;;;;;;;3.82;65.57;102026.34;1741939;82;27378;-54
2021/10/08 01:57:34;;;;;;;17.23;8.15;;;;;;;3.82;65.59;102033.84;1741852;82;25666;-55
2021/10/08 02:00:01;;;;;;;18.42;7.90;;;;;;;3.81;65.51;102034.06;1741877;82;25645;-54
2021/10/08 02:02:28;;;;;;;19.60;9.08;;;;;;;3.78;65.55;102039.35;1741886;82;26285;-54
2021/10/08 02:04:55;;;;;;;19.90;8.03;;;;;;;3.77;65.58;102040.91;1741932;82;25479;-55
2021/10/08 02:07:25;;;;;;;18.73;8.20;;;;;;;3.72;65.40;102038.35;1741939;82;27340;-54
2021/10/08 02:09:52;;;;;;;18.15;8.63;;;;;;;3.69;65.38;102040.66;1741857;82;25486;-55
2021/10/08 02:12:19;;;;;;;14.03;7.72;;;;;;;3.65;65.42;102038.94;1741895;81;25614;-54
2021/10/08 02:14:47;;;;;;;16.10;7.33;;;;;;;3.60;65.48;102037.97;1741859;82;25606;-54
2021/10/08 02:17:14;;;;;;;12.18;6.50;;;;;;;3.53;65.44;102041.51;1741963;82;25540;-54
2021/10/08 02:19:41;;;;;;;20.43;8.00;;;;;;;3.48;65.36;102044.02;1741901;82;27348;-55
2021/10/08 02:22:09;;;;;;;15.30;7.30;;;;;;;3.44;65.46;102038.82;1741838;82;25689;-54
2021/10/08 02:24:35;;;;;;;12.37;7.85;;;;;;;3.42;65.53;102046.75;1741936;82;25492;-54
2021/10/08 02:27:03;;;;;;;13.43;6.50;;;;;;;3.39;65.61;102050.69;1741896;81;26244;-55
2021/10/08 02:29:30;;;;;;;14.53;7.70;;;;;;;3.36;65.65;102046.58;1741927;82;25761;-54
2021/10/08 02:31:57;;;;;;;15.32;7.65;;;;;;;3.36;65.59;102060.48;1741932;82;27953;-54
2021/10/08 02:34:25;;;;;;;13.93;6.50;;;;;;;3.34;65.72;102059.89;1748776;81;25675;-52
2021/10/08 02:36:52;;;;;;;17.67;7.62;;;;;;;3.33;65.86;102064.39;1752001;81;25522;-54
2021/10/08 02:39:19;;;;;;;14.30;6.30;;;;;;;3.33;65.72;102058.23;1751922;81;25619;-54
2021/10/08 02:41:46;;;;;;;14.85;6.65;;;;;;;3.34;65.93;102066.05;1752039;81;25668;-54
2021/10/08 02:44:15;;;;;;;17.02;7.53;;;;;;;3.39;66.11;102070.76;1751989;81;27343;-54
2021/10/08 02:46:42;;;;;;;20.87;7.77;;;;;;;3.41;66.02;102055.83;1752122;81;25741;-54
2021/10/08 02:49:09;;;;;;;19.10;8.05;;;;;;;3.44;66.01;102058.05;1752001;81;25717;-55
2021/10/08 02:51:36;;;;;;;14.40;7.87;;;;;;;3.44;65.96;102062.06;1752053;81;25736;-53
2021/10/08 02:54:04;;;;;;;17.05;8.90;;;;;;;3.43;66.03;102057.77;1752032;81;25483;-55
2021/10/08 02:56:32;;;;;;;14.78;8.28;;;;;;;3.41;66.07;102061.98;1751972;81;27322;-54
2021/10/08 02:59:01;;;;;;;19.73;8.45;;;;;;;3.40;65.94;102071.56;1752202;81;25531;-55
2021/10/08 03:01:28;;;;;;;17.23;8.65;;;;;;;3.35;65.95;102077.56;1718425;83;25529;-54
2021/10/08 03:03:55;;;;;;;23.35;9.35;;;;;;;3.31;65.96;102079.84;1718378;83;25607;-53
2021/10/08 03:06:23;;;;;;;19.25;7.58;;;;;;;3.29;66.02;102075.77;1688145;85;25725;-54
2021/10/08 03:08:53;;;;;;;22.02;7.33;;;;;;;3.21;66.18;102080.84;1718398;83;27320;-52
2021/10/08 03:11:21;;;;;;;21.27;8.80;;;;;;;3.16;66.16;102088.69;1688021;82;25777;-54
2021/10/08 03:13:49;;;;;;;21.03;8.47;;;;;;;3.14;66.22;102090.77;1718683;83;25463;-54
2021/10/08 03:16:15;;;;;;;22.37;8.43;;;;;;;3.11;66.33;102087.99;1688084;85;26226;-55
2021/10/08 03:18:42;;;;;;;18.07;7.40;;;;;;;3.10;66.44;102091.72;1718637;83;25641;-54
2021/10/08 03:21:09;;;;;;;17.37;6.60;;;;;;;3.13;66.47;102093.97;1688247;85;27989;-54
2021/10/08 03:23:38;;;;;;;18.55;7.08;;;;;;;3.13;66.49;102093.97;1718514;83;25751;-54
2021/10/08 03:26:05;;;;;;;18.50;7.70;;;;;;;3.15;66.49;102100.41;1688357;85;25499;-53
2021/10/08 03:28:32;;;;;;;13.28;6.35;;;;;;;3.17;66.53;102099.70;1718663;83;26176;-54
2021/10/08 03:30:59;;;;;;;17.25;7.92;;;;;;;3.21;66.50;102101.43;1688282;85;25520;-54
2021/10/08 03:33:31;;;;;;;20.27;7.80;;;;;;;3.25;66.45;102110.65;1722260;82;27313;-55
2021/10/08 03:36:00;;;;;;;21.07;8.65;;;;;;;3.26;66.54;102115.78;1742046;82;25739;-54
2021/10/08 03:38:31;;;;;;;15.63;8.28;;;;;;;3.23;66.38;102108.72;1742039;82;25464;-54
2021/10/08 03:43:30;;;;;;;18.27;8.70;;;;;;;3.20;66.42;102108.61;1739440;82;25523;-54
2021/10/08 03:46:01;;;;;;;17.75;8.08;;;;;;;3.20;66.49;102113.15;1734132;82;27923;-55
2021/10/08 03:51:15;;;;;;;23.55;11.75;;;;;;;3.14;66.49;102114.31;1653029;84;25683;-54
2021/10/08 03:53:42;;;;;;;13.90;7.60;;;;;;;3.08;66.55;102111.17;1653822;84;26329;-53
2021/10/08 03:56:10;;;;;;;15.50;7.33;;;;;;;3.06;66.59;102113.22;1694264;84;25631;-53
2021/10/08 03:58:37;;;;;;;12.90;7.47;;;;;;;3.07;66.64;102116.20;1694269;84;28133;-54
2021/10/08 04:01:04;;;;;;;15.98;9.85;;;;;;;3.07;66.57;102114.06;1694198;84;25756;-56
2021/10/08 04:03:31;;;;;;;18.87;7.25;;;;;;;3.08;66.62;102112.52;1694243;84;25551;-55
2021/10/08 04:05:57;;;;;;;13.18;6.62;;;;;;;3.10;66.56;102117.13;1694209;84;26273;-56
2021/10/08 04:08:24;;;;;;;17.62;7.72;;;;;;;3.10;66.64;102117.13;1694265;84;25683;-56
2021/10/08 04:10:52;;;;;;;13.03;7.05;;;;;;;3.13;66.52;102118.03;1694250;84;27323;-55
2021/10/08 04:13:19;;;;;;;18.30;10.32;;;;;;;3.15;66.57;102120.47;1694171;84;25786;-54
2021/10/08 04:15:46;;;;;;;23.47;9.45;;;;;;;3.17;66.59;102122.44;1694230;84;25705;-54
2021/10/08 04:18:12;;;;;;;14.58;8.88;;;;;;;3.18;66.60;102126.23;1694201;84;25745;-55
2021/10/08 04:20:42;;;;;;;18.50;8.48;;;;;;;3.16;66.53;102119.45;1694196;84;25566;-53
2021/10/08 04:23:09;;;;;;;19.07;8.43;;;;;;;3.14;66.58;102116.98;1740298;82;27373;-55
2021/10/08 04:25:36;;;;;;;20.32;10.98;;;;;;;3.08;66.44;102115.19;1750154;82;25681;-54
2021/10/08 04:28:04;;;;;;;16.12;9.43;;;;;;;3.04;66.46;102117.16;1750306;82;25681;-54
2021/10/08 04:30:31;;;;;;;19.35;7.22;;;;;;;2.98;66.46;102120.98;1750196;82;25829;-54
2021/10/08 04:32:58;;;;;;;13.62;6.95;;;;;;;2.92;66.58;102119.16;1750219;82;25649;-55
2021/10/08 04:35:25;;;;;;;20.08;8.25;;;;;;;2.89;66.59;102118.23;1740845;81;27338;-54
2021/10/08 04:37:52;;;;;;;17.00;7.08;;;;;;;2.89;66.64;102125.44;1754110;81;27228;-55
2021/10/08 04:40:18;;;;;;;17.77;7.25;;;;;;;2.88;66.70;102128.64;1754175;81;25652;-55
2021/10/08 04:42:45;;;;;;;18.77;7.12;;;;;;;2.87;66.63;102132.34;1754196;81;25724;-55
2021/10/08 04:45:12;;;;;;;15.32;6.72;;;;;;;2.89;66.63;102128.11;1754240;81;25486;-54
2021/10/08 04:47:39;;;;;;;19.27;7.92;;;;;;;2.92;66.75;102130.38;1754238;81;27229;-55
2021/10/08 04:50:07;;;;;;;15.50;8.05;;;;;;;2.95;66.71;102140.12;1754133;81;25617;-55
2021/10/08 04:52:34;;;;;;;20.85;8.15;;;;;;;2.98;66.73;102138.89;1754229;81;25511;-55
2021/10/08 04:55:01;;;;;;;13.30;8.05;;;;;;;2.97;66.76;102132.70;1754179;81;26269;-55
2021/10/08 04:57:27;;;;;;;18.95;8.35;;;;;;;2.98;66.76;102145.57;1754229;81;25635;-55
2021/10/08 04:59:54;;;;;;;16.93;8.33;;;;;;;2.97;66.94;102144.73;1754161;81;27333;-54
2021/10/08 05:02:21;;;;;;;20.75;8.23;;;;;;;2.94;66.67;102155.03;1754098;81;25440;-56
2021/10/08 05:04:48;;;;;;;16.45;9.18;;;;;;;2.92;66.76;102148.56;1754219;81;25689;-56
2021/10/08 05:07:15;;;;;;;14.30;8.00;;;;;;;2.87;66.74;102148.37;1754182;81;26191;-55
2021/10/08 05:09:42;;;;;;;17.05;7.10;;;;;;;2.87;66.79;102148.37;1754220;81;25455;-57
2021/10/08 05:12:08;;;;;;;15.13;7.20;;;;;;;2.90;66.97;102151.16;1754226;81;27886;-55
2021/10/08 05:14:35;;;;;;;15.03;7.08;;;;;;;2.90;66.96;102151.97;1754177;81;25743;-56
2021/10/08 05:17:03;;;;;;;12.63;7.40;;;;;;;2.92;66.85;102157.91;1754205;81;25529;-54
2021/10/08 05:19:30;;;;;;;15.68;7.42;;;;;;;2.94;66.86;102159.04;1754179;81;25619;-54
2021/10/08 05:21:57;;;;;;;15.35;7.95;;;;;;;2.94;66.80;102155.84;1754233;81;25540;-54
2021/10/08 05:24:24;;;;;;;16.00;7.37;;;;;;;2.97;66.88;102158.09;1754163;81;27297;-56
2021/10/08 05:26:52;;;;;;;20.02;8.70;;;;;;;3.06;67.12;102165.87;1754073;81;25443;-55
2021/10/08 05:29:19;;;;;;;19.00;8.00;;;;;;;3.08;67.01;102163.81;1754191;81;25531;-55
2021/10/08 05:31:46;;;;;;;18.27;8.35;;;;;;;3.10;67.12;102173.27;1754157;81;25674;-56
2021/10/08 05:34:13;;;;;;;15.65;9.08;;;;;;;3.13;66.92;102178.20;1751450;81;25832;-56
2021/10/08 05:36:41;;;;;;;16.35;8.15;;;;;;;3.14;66.99;102169.13;1741947;82;27347;-55
2021/10/08 05:39:08;;;;;;;16.73;8.58;;;;;;;3.17;67.16;102173.25;1741798;82;25682;-55
2021/10/08 05:41:35;;;;;;;18.15;8.70;;;;;;;3.18;67.18;102171.70;1741929;82;25609;-55
2021/10/08 05:44:03;;;;;;;16.05;8.20;;;;;;;3.20;67.06;102176.00;1741994;81;26221;-56
2021/10/08 05:46:30;;;;;;;16.73;8.55;;;;;;;3.22;67.06;102186.80;1741985;81;25488;-52
2021/10/08 05:48:57;;;;;;;17.67;7.95;;;;;;;3.21;67.05;102181.66;1741929;82;27384;-54
2021/10/08 05:51:24;;;;;;;14.95;8.03;;;;;;;3.24;67.11;102182.58;1741862;82;25516;-55
2021/10/08 05:53:51;;;;;;;15.43;7.53;;;;;;;3.29;67.15;102186.77;1741940;82;25629;-55
2021/10/08 05:56:18;;;;;;;21.60;8.10;;;;;;;3.34;67.22;102190.96;1741880;82;26369;-55
2021/10/08 05:58:45;;;;;;;12.75;7.28;;;;;;;3.41;67.29;102191.73;1741949;82;25495;-56
2021/10/08 06:01:12;;;;;;;21.05;8.00;;;;;;;3.52;67.21;102196.91;1741905;82;27324;-56
2021/10/08 06:03:39;;;;;;;17.50;8.10;;;;;;;3.60;67.27;102198.00;1741839;82;25470;-56
2021/10/08 06:06:06;;;;;;;15.88;8.20;;;;;;;3.71;67.30;102204.02;1741930;81;25496;-55
2021/10/08 06:08:33;;;;;;;20.32;9.03;;;;;;;3.82;67.21;102208.38;1741851;82;25638;-55
2021/10/08 06:11:00;;;;;;;19.42;9.43;;;;;;;3.92;66.95;102208.72;1741946;82;25676;-55
2021/10/08 06:13:28;;;;;;;19.45;9.30;;;;;;;4.06;66.74;102209.43;1741919;82;27992;-55
2021/10/08 06:15:55;;;;;;;24.18;10.28;;;;;;;4.17;66.68;102206.05;1741802;82;25463;-54
2021/10/08 06:18:22;;;;;;;25.08;9.25;;;;;;;4.29;66.55;102209.65;1741914;82;25630;-56
2021/10/08 06:20:50;;;;;;;22.67;9.40;;;;;;;4.43;66.87;102209.00;1741852;82;25683;-55
2021/10/08 06:23:17;;;;;;;17.10;9.15;;;;;;;4.62;66.89;102211.19;1741920;82;25685;-56
2021/10/08 06:25:44;;;;;;;19.95;10.15;;;;;;;4.88;67.30;102221.86;1741888;82;27453;-54
2021/10/08 06:28:12;;;;;;;22.70;9.98;;;;;;;5.17;66.88;102218.40;1741845;82;25564;-54
2021/10/08 06:30:40;;;;;;;21.52;9.75;;;;;;;5.46;67.44;102225.36;1741896;81;25637;-55
2021/10/08 06:33:07;;;;;;;13.32;8.50;;;;;;;5.79;66.32;102225.44;1741848;82;26256;-54
2021/10/08 06:35:34;;;;;;;22.05;10.20;;;;;;;6.13;66.89;102227.09;1748351;81;25704;-54
2021/10/08 06:38:00;;;;;;;25.55;10.30;;;;;;;6.48;65.45;102235.72;1751959;81;27340;-55
2021/10/08 06:40:28;;;;;;;32.67;12.53;;;;;;;6.79;64.56;102229.14;1751840;81;25470;-55
2021/10/08 06:42:55;;;;;;;19.92;11.50;;;;;;;7.07;63.59;102232.98;1751998;81;25500;-55
2021/10/08 06:45:25;;;;;;;27.52;12.30;;;;;;;7.33;62.94;102235.64;1751970;81;25623;-55
2021/10/08 06:47:52;;;;;;;25.40;11.10;;;;;;;7.62;62.35;102237.00;1752023;81;25527;-55
2021/10/08 06:50:19;;;;;;;18.05;10.10;;;;;;;7.94;62.19;102239.99;1751983;81;27341;-56
2021/10/08 06:52:48;;;;;;;21.37;11.10;;;;;;;8.29;61.62;102243.00;1751914;81;25629;-57
2021/10/08 06:55:15;;;;;;;22.73;11.05;;;;;;;8.63;61.03;102244.86;1751991;81;25715;-57
2021/10/08 06:57:41;;;;;;;16.97;9.53;;;;;;;8.91;59.22;102241.21;1751953;81;26235;-56
2021/10/08 07:00:10;;;;;;;26.50;10.20;;;;;;;9.19;59.00;102247.48;1751978;81;25478;-56
2021/10/08 07:02:54;;;;;;;25.37;10.90;;;;;;;9.49;59.00;102243.78;1751987;81;27309;-56
2021/10/08 07:05:23;;;;;;;20.80;10.03;;;;;;;9.84;58.38;102253.34;1751949;81;25449;-56
2021/10/08 07:07:52;;;;;;;23.95;10.70;;;;;;;10.25;57.08;102255.58;1752123;81;25656;-57
2021/10/08 07:10:19;;;;;;;20.77;10.75;;;;;;;10.61;56.14;102255.86;1751907;81;26270;-58
2021/10/08 07:12:46;;;;;;;17.85;10.58;;;;;;;10.90;55.88;102262.25;1752023;81;25526;-56
2021/10/08 07:15:16;;;;;;;27.52;10.68;;;;;;;11.29;55.48;102264.05;1752004;81;27047;-56
2021/10/08 07:17:47;;;;;;;20.92;11.38;;;;;;;11.61;54.54;102261.67;1751892;81;25619;-56
2021/10/08 07:20:18;;;;;;;24.05;10.55;;;;;;;12.08;53.70;102262.05;1751964;81;25663;-56
2021/10/08 07:22:45;;;;;;;26.93;10.82;;;;;;;12.57;52.72;102267.45;1751981;81;25635;-57
2021/10/08 07:25:13;;;;;;;18.87;10.65;;;;;;;13.25;51.93;102268.88;1752018;81;25633;-56
2021/10/08 07:27:42;;;;;;;21.90;10.82;;;;;;;14.11;50.20;102268.62;1751982;81;27937;-56
2021/10/08 07:30:10;;;;;;;24.37;11.33;;;;;;;14.81;48.35;102272.89;1752002;81;25708;-58
2021/10/08 07:32:38;;;;;;;29.63;14.38;;;;;;;15.41;47.52;102284.70;1751985;81;25695;-57
2021/10/08 07:35:06;;;;;;;24.23;11.03;;;;;;;15.82;45.99;102275.99;1748751;81;26238;-58
2021/10/08 07:37:34;;;;;;;23.10;10.53;;;;;;;15.91;44.96;102272.84;1741891;82;25617;-58
2021/10/08 07:40:03;;;;;;;16.93;9.93;;;;;;;16.05;45.02;102278.34;1741832;82;27990;-57
2021/10/08 07:42:32;;;;;;;19.15;10.45;;;;;;;16.34;45.02;102292.34;1741896;82;25692;-57
2021/10/08 07:44:59;;;;;;;24.55;10.48;;;;;;;16.54;43.53;102277.52;1742007;82;25470;-55
2021/10/08 07:47:26;;;;;;;24.23;10.85;;;;;;;16.79;43.40;102279.77;1741829;82;26204;-56
2021/10/08 07:49:53;;;;;;;21.15;10.82;;;;;;;17.01;42.59;102281.03;1741895;82;25535;-55
2021/10/08 07:52:20;;;;;;;26.75;12.03;;;;;;;17.26;42.08;102283.77;1741872;82;27966;-56
2021/10/08 07:54:47;;;;;;;18.15;10.90;;;;;;;17.48;41.64;102284.39;1741810;82;25694;-55
2021/10/08 07:57:14;;;;;;;23.42;10.43;;;;;;;17.67;41.65;102287.00;1741892;81;25506;-55
2021/10/08 07:59:41;;;;;;;21.23;10.60;;;;;;;17.93;41.00;102290.54;1741833;82;25620;-57
2021/10/08 08:02:08;;;;;;;19.42;10.88;;;;;;;18.01;40.17;102288.97;1741853;82;25693;-56
2021/10/08 08:04:37;;;;;;;22.60;11.30;;;;;;;18.21;40.34;102292.57;1742007;82;27945;-58
2021/10/08 08:07:05;;;;;;;22.42;11.05;;;;;;;18.43;39.97;102293.10;1742073;81;25632;-57
2021/10/08 08:09:33;;;;;;;20.85;12.07;;;;;;;18.63;38.84;102287.66;1741905;82;25915;-56
2021/10/08 08:12:01;;;;;;;21.12;10.58;;;;;;;18.76;38.55;102288.69;1741977;82;25621;-57
2021/10/08 08:14:29;;;;;;;23.47;12.07;;;;;;;18.77;37.88;102285.38;1742155;82;25459;-57
2021/10/08 08:16:56;;;;;;;33.60;10.45;;;;;;;18.81;37.50;102287.72;1742016;82;27965;-56
2021/10/08 08:19:23;;;;;;;26.05;10.95;;;;;;;19.01;37.54;102289.11;1741931;81;25693;-56
2021/10/08 08:21:50;;;;;;;26.42;10.90;;;;;;;19.29;37.26;102292.97;1741938;81;25629;-57
2021/10/08 08:24:17;;;;;;;28.42;11.08;;;;;;;19.62;36.73;102291.97;1741993;81;25950;-57
2021/10/08 08:26:43;;;;;;;28.32;11.00;;;;;;;19.87;36.49;102293.69;1741995;82;25623;-57
2021/10/08 08:29:10;;;;;;;23.98;11.05;;;;;;;20.19;36.60;102290.98;1742083;82;27333;-56
2021/10/08 08:31:37;;;;;;;23.77;11.43;;;;;;;20.48;35.34;102295.78;1741911;82;25568;-58
2021/10/08 08:34:04;;;;;;;19.10;10.85;;;;;;;20.65;35.12;102289.45;1742000;82;25643;-57
2021/10/08 08:36:32;;;;;;;19.90;10.38;;;;;;;20.85;34.70;102293.38;1741892;81;25976;-58
2021/10/08 08:39:04;;;;;;;18.32;11.15;;;;;;;21.10;33.43;102303.22;1741963;82;25981;-57
2021/10/08 08:41:30;;;;;;;19.65;9.70;;;;;;;21.16;33.02;102296.38;1741528;82;28113;-57
2021/10/08 08:43:58;;;;;;;18.80;9.53;;;;;;;21.33;33.39;102294.66;1741901;82;25499;-57
2021/10/08 08:46:24;;;;;;;26.23;10.58;;;;;;;21.68;33.10;102295.83;1741992;82;25522;-57
2021/10/08 08:48:51;;;;;;;17.27;10.40;;;;;;;21.61;31.40;102289.48;1741964;82;25603;-57
2021/10/08 08:51:18;;;;;;;15.72;9.98;;;;;;;21.41;31.38;102293.80;1742018;81;25505;-57
2021/10/08 08:53:45;;;;;;;23.25;10.05;;;;;;;21.33;29.97;102294.66;1741982;81;27945;-57
2021/10/08 08:56:12;;;;;;;22.10;10.85;;;;;;;21.24;31.30;102291.39;1741885;82;25760;-57
2021/10/08 08:58:39;;;;;;;23.73;10.40;;;;;;;21.44;30.92;102291.18;1741969;82;25617;-57
2021/10/08 09:01:06;;;;;;;17.92;10.88;;;;;;;21.64;31.19;102295.11;1741878;82;25609;-57
2021/10/08 09:03:32;;;;;;;22.93;11.53;;;;;;;21.90;31.19;102295.46;1741997;82;25709;-57
2021/10/08 09:06:00;;;;;;;17.82;10.63;;;;;;;22.00;30.38;102290.91;1741986;82;27424;-57
2021/10/08 09:08:34;;;;;;;22.10;10.25;;;;;;;22.11;30.13;102293.23;1741873;82;25693;-57
2021/10/08 09:11:05;;;;;;;21.50;10.43;;;;;;;22.40;30.18;102298.40;1741979;81;25647;-57
2021/10/08 09:13:32;;;;;;;17.30;9.85;;;;;;;22.37;28.84;102295.19;1741940;81;25619;-57
2021/10/08 09:16:02;;;;;;;19.92;10.00;;;;;;;22.20;28.69;102298.08;1741934;82;25676;-57
2021/10/08 09:18:33;;;;;;;19.00;10.32;;;;;;;22.05;28.85;102294.58;1741946;81;28465;-57
2021/10/08 09:21:04;;;;;;;26.17;10.13;;;;;;;22.27;29.04;102294.77;1741873;81;25680;-57
2021/10/08 09:23:46;;;;;;;18.00;11.35;;;;;;;22.66;29.24;102300.84;1738633;82;25805;-57
2021/10/08 09:26:22;;;;;;;21.62;11.38;;;;;;;22.77;27.97;102299.25;1741438;82;25640;-57
2021/10/08 09:29:02;;;;;;;18.50;10.78;;;;;;;22.79;28.02;102298.33;1742057;81;25632;-57
2021/10/08 09:31:44;;;;;;;18.07;10.18;;;;;;;22.79;28.02;102298.33;1741968;82;28036;-57
2021/10/08 09:34:21;;;;;;;23.22;10.58;;;;;;;22.77;27.75;102301.22;1741948;82;25612;-57
2021/10/08 09:37:03;;;;;;;20.25;9.75;;;;;;;22.65;27.21;102289.02;1741906;81;25623;-57
2021/10/08 09:39:33;;;;;;;16.42;9.73;;;;;;;22.47;26.63;102287.03;1741905;81;26496;-58
2021/10/08 09:42:12;;;;;;;21.93;9.93;;;;;;;22.40;26.75;102289.55;1741988;82;25457;-57
2021/10/08 09:44:46;;;;;;;20.70;10.32;;;;;;;22.48;26.85;102291.98;1740768;82;30873;-56
2021/10/08 09:47:22;;;;;;;18.37;9.23;;;;;;;22.53;26.71;102291.19;1741893;81;25818;-57
2021/10/08 09:49:52;;;;;;;15.48;9.45;;;;;;;22.75;26.71;102281.66;1741937;82;25596;-56
2021/10/08 09:52:29;;;;;;;22.82;8.63;;;;;;;23.09;26.96;102274.09;1741914;82;25636;-56
2021/10/08 09:55:03;;;;;;;20.17;9.25;;;;;;;23.33;25.96;102285.42;1741995;82;25642;-56
2021/10/08 09:57:50;;;;;;;15.78;8.73;;;;;;;23.33;24.54;102283.48;1741957;81;28099;-57
2021/10/08 10:00:46;;;;;;;25.20;9.03;;;;;;;22.81;24.64;102278.09;1741678;82;25560;-57
2021/10/08 10:03:16;;;;;;;22.17;9.38;;;;;;;22.87;24.89;102287.76;1741922;82;25505;-57
2021/10/08 10:05:43;;;;;;;15.25;8.23;;;;;;;22.72;25.26;102279.59;1741845;81;25751;-58
2021/10/08 10:08:11;;;;;;;20.75;8.65;;;;;;;23.00;25.04;102277.50;1741965;82;25668;-57
2021/10/08 10:10:39;;;;;;;16.73;7.92;;;;;;;22.98;24.50;102283.16;1741866;82;27967;-58
2021/10/08 10:13:09;;;;;;;16.00;8.85;;;;;;;23.05;24.79;102284.17;1741828;82;25751;-57
2021/10/08 10:15:40;;;;;;;13.48;7.67;;;;;;;23.27;24.70;102287.63;1741913;82;25564;-57
2021/10/08 10:18:12;;;;;;;20.25;8.53;;;;;;;23.43;24.77;102300.95;1741909;82;25800;-57
2021/10/08 10:20:46;;;;;;;20.65;8.60;;;;;;;22.95;23.53;102287.39;1704025;82;25536;-57
2021/10/08 10:23:16;;;;;;;17.92;7.85;;;;;;;22.85;23.01;102291.45;1741663;82;27412;-57
2021/10/08 10:25:46;;;;;;;16.85;8.13;;;;;;;22.63;24.57;102289.11;1741810;82;25447;-58
2021/10/08 10:28:15;;;;;;;23.95;8.38;;;;;;;23.11;25.01;102280.65;1741902;82;25696;-57
2021/10/08 10:30:47;;;;;;;20.00;9.07;;;;;;;23.42;23.94;102286.11;1742113;82;26208;-57
2021/10/08 10:33:16;;;;;;;16.97;8.30;;;;;;;23.43;24.10;102285.77;1688415;84;25641;-57
2021/10/08 10:35:46;;;;;;;;;;;;;;;23.79;24.27;102289.56;1740388;81;27340;-58
2021/10/08 10:38:33;;;;;;;;;;;;;;;23.97;22.74;102277.66;1747624;82;25632;-57
2021/10/08 10:41:14;;;;;;;20.80;9.95;;;;;;;23.70;23.26;102282.01;1745148;81;25720;-57
2021/10/08 10:43:49;;;;;;;20.05;9.30;;;;;;;23.60;23.54;102281.92;1745043;81;25571;-57
2021/10/08 10:46:45;;;;;;;15.60;8.58;;;;;;;23.68;23.46;102282.36;1745057;81;25635;-57
2021/10/08 10:52:01;;;;;;;21.62;9.40;;;;;;;23.41;23.19;102277.03;1744980;82;25615;-57
2021/10/08 10:54:53;;;;;;;18.37;9.25;;;;;;;23.31;22.10;102266.47;1745051;82;25620;-58
2021/10/08 10:57:29;;;;;;;21.23;9.63;;;;;;;23.09;23.11;102268.58;1745017;81;25622;-57
2021/10/08 11:00:24;;;;;;;17.10;8.93;;;;;;;23.63;23.40;102266.59;1744866;82;25531;-57
2021/10/08 11:03:18;;;;;;;17.17;8.85;;;;;;;23.98;23.26;102273.72;1745018;82;27313;-57
2021/10/08 11:06:09;;;;;;;13.90;8.78;;;;;;;23.85;23.14;102269.41;1743876;82;25903;-59
2021/10/08 11:08:40;;;;;;;15.23;8.90;;;;;;;23.88;22.61;102263.77;1745013;82;25523;-56
2021/10/08 11:11:15;;;;;;;24.25;9.70;;;;;;;23.91;22.52;102264.45;1680126;85;25685;-57
2021/10/08 11:13:42;;;;;;;20.23;9.93;;;;;;;23.93;22.43;102260.75;1679550;85;25591;-57
2021/10/08 11:16:12;;;;;;;16.93;8.90;;;;;;;23.56;21.64;102263.63;1677770;85;27510;-56
2021/10/08 11:18:43;;;;;;;22.87;9.40;;;;;;;23.26;22.52;102260.61;1677585;85;25722;-57
2021/10/08 11:21:17;;;;;;;16.20;9.38;;;;;;;23.26;22.83;102261.99;1677757;85;25525;-56
2021/10/08 11:23:44;;;;;;;17.07;8.75;;;;;;;23.57;23.00;102265.25;1677935;85;25701;-59
2021/10/08 11:26:15;;;;;;;16.97;9.23;;;;;;;23.73;22.96;102261.94;1677778;85;25562;-58
2021/10/08 11:28:45;;;;;;;21.20;10.10;;;;;;;23.62;22.75;102259.48;1677798;85;28020;-59
2021/10/08 11:31:19;;;;;;;20.97;9.38;;;;;;;23.72;22.80;102256.77;1666392;85;25620;-58
2021/10/08 11:33:49;;;;;;;19.67;9.13;;;;;;;23.86;22.86;102255.24;1672332;85;25635;-58
2021/10/08 11:36:29;;;;;;;18.02;9.15;;;;;;;24.07;22.91;102260.33;1681857;83;25659;-59